Flight Track Log - Related Links

Times and Time Zones

All times are in EDT time to prevent confusion due to time zone crossing. See the N960DL flight status page for this flight to view local times or setup timezone preferences in your user account.

Time Position Orientation Groundspeed Altitude Reporting Facility
EDT Latitude Longitude Course Direction KTS MPH feet Rate Location/Type
Fri 08:33:32 PM 33.6333 -84.3833 234° Southwest 163 188 2,300  Level Atlanta TRACON
Fri 08:34:32 PM 33.6167 -84.3167 107° East 224 258 4,500 2,450 Climbing Atlanta TRACON
Fri 08:35:32 PM 33.5833 -84.2833 140° Southeast 247 284 7,200 2,254 Climbing Atlanta TRACON
Fri 08:37:49 PM 33.4514 -84.3625 207° Southwest 239 275 11,900 1,797 Climbing Atlanta Center
Fri 08:38:00 PM 33.7179 -84.7064 234° Southwest  Level FlightAware Approximate
Fri 08:38:49 PM 33.4575 -84.4844 273° West 309 356 13,100  Level Atlanta Center
Fri 08:39:49 PM 33.4611 -84.6289 272° West 370 426 15,500 2,350 Climbing Atlanta Center
Fri 08:40:49 PM 33.4728 -84.7636 276° West 406 467 17,800 2,150 Climbing Atlanta Center
Fri 08:41:49 PM 33.4844 -84.9056 276° West 422 486 19,800 1,900 Climbing Atlanta Center
Fri 08:42:49 PM 33.4958 -85.0478 276° West 430 495 21,600 1,550 Climbing Atlanta Center
Fri 08:43:49 PM 33.5092 -85.1922 276° West 435 501 22,900 1,550 Climbing Atlanta Center
Fri 08:44:49 PM 33.4931 -85.3417 263° West 440 506 24,700 1,850 Climbing Atlanta Center
Fri 08:45:49 PM 33.4728 -85.4881 261° West 445 512 26,600 1,600 Climbing Atlanta Center
Fri 08:46:49 PM 33.4522 -85.6172 259° West 445 512 27,900 1,300 Climbing Atlanta Center
Fri 08:47:49 PM 33.4294 -85.7639 259° West 445 512 29,200 1,350 Climbing Atlanta Center
Fri 08:48:49 PM 33.4044 -85.9125 259° West 434 499 30,600 1,150 Climbing Atlanta Center
Fri 08:49:49 PM 33.3833 -86.0514 260° West 428 493 31,500 1,200 Climbing Atlanta Center
Fri 08:50:49 PM 33.3622 -86.1953 260° West 428 493 33,000 1,050 Climbing Atlanta Center
Fri 08:51:49 PM 33.3472 -86.3317 263° West 428 493 33,600 550 Climbing Atlanta Center
Fri 08:52:49 PM 33.3303 -86.4531 261° West 428 493 34,100 200 Climbing Atlanta Center
Fri 08:53:49 PM 33.3128 -86.5917 261° West 422 486 34,000 -50 Descending Atlanta Center
Fri 08:54:49 PM 33.2969 -86.7478 263° West 422 486 34,000  Level Atlanta Center
Fri 08:55:49 PM 33.2792 -86.8839 261° West 429 494 34,000  Level Atlanta Center
Fri 08:56:49 PM 33.2617 -87.0150 261° West 417 480 34,000  Level Atlanta Center
Fri 08:57:49 PM 33.2419 -87.1336 259° West 410 472 34,000  Level Atlanta Center
Fri 08:58:49 PM 33.2258 -87.2694 262° West 410 472 34,000  Level Atlanta Center
Fri 08:59:49 PM 33.2078 -87.4031 261° West 410 472 34,000  Level Atlanta Center
Fri 09:02:44 PM 33.1531 -87.8114 261° West 412 474 34,000  Level Memphis Center
Fri 09:03:44 PM 33.1222 -87.9389 254° West 407 468 34,000  Level Memphis Center
Fri 09:04:44 PM 33.0808 -88.0639 248° West 407 468 34,000  Level Memphis Center
Fri 09:05:44 PM 33.0392 -88.1939 249° West 412 474 34,000  Level Memphis Center
Fri 09:06:44 PM 32.9997 -88.3186 249° West 412 474 34,000  Level Memphis Center
Fri 09:07:44 PM 32.9578 -88.4458 249° West 417 480 34,000  Level Memphis Center
Fri 09:08:44 PM 32.9283 -88.5803 255° West 417 480 34,000  Level Memphis Center
Fri 09:09:44 PM 32.9178 -88.7164 265° West 411 473 34,000  Level Memphis Center
Fri 09:10:44 PM 32.9069 -88.8503 265° West 411 473 34,000  Level Memphis Center
Fri 09:11:44 PM 32.8939 -88.9892 264° West 416 479 34,000  Level Memphis Center
Fri 09:12:44 PM 32.8808 -89.1228 263° West 416 479 34,000  Level Memphis Center
Fri 09:13:44 PM 32.8694 -89.2592 264° West 416 479 34,000  Level Memphis Center
Fri 09:14:44 PM 32.8561 -89.3903 263° West 416 479 34,000  Level Memphis Center
Fri 09:15:44 PM 32.8444 -89.5264 264° West 411 473 34,000  Level Memphis Center
Fri 09:16:44 PM 32.8328 -89.6550 264° West 406 467 34,000  Level Memphis Center
Fri 09:17:44 PM 32.8167 -89.7911 262° West 406 467 34,000  Level Memphis Center
Fri 09:18:44 PM 32.8067 -89.9100 264° West 406 467 34,000  Level Memphis Center
Fri 09:19:44 PM 32.7967 -90.0408 265° West 406 467 34,000  Level Memphis Center
Fri 09:20:44 PM 32.7825 -90.1694 263° West 406 467 34,000  Level Memphis Center
Fri 09:21:44 PM 32.7700 -90.3006 264° West 406 467 34,000  Level Memphis Center
Fri 09:22:44 PM 32.7575 -90.4264 263° West 406 467 34,000  Level Memphis Center
Fri 09:23:44 PM 32.7447 -90.5525 263° West 401 461 34,000  Level Memphis Center
Fri 09:24:44 PM 32.7319 -90.6858 264° West 401 461 34,000  Level Memphis Center
Fri 09:25:44 PM 32.7192 -90.8142 263° West 401 461 34,000  Level Memphis Center
Fri 09:27:39 PM 32.6944 -91.0750 264° West 427 491 34,000  Level Fort Worth Center
Fri 09:28:39 PM 32.6775 -91.1969 261° West 408 470 34,000  Level Fort Worth Center
Fri 09:29:39 PM 32.6650 -91.3236 263° West 397 457 34,000  Level Fort Worth Center
Fri 09:30:39 PM 32.6522 -91.4478 263° West 391 450 34,000  Level Fort Worth Center
Fri 09:31:39 PM 32.6369 -91.5697 262° West 385 443 34,000  Level Fort Worth Center
Fri 09:32:39 PM 32.6261 -91.6936 264° West 385 443 34,000  Level Fort Worth Center
Fri 09:33:39 PM 32.6108 -91.8156 262° West 390 449 34,000  Level Fort Worth Center
Fri 09:34:39 PM 32.5956 -91.9447 262° West 390 449 34,000  Level Fort Worth Center
Fri 09:35:39 PM 32.5842 -92.0661 264° West 390 449 34,000  Level Fort Worth Center
Fri 09:36:39 PM 32.5683 -92.1903 261° West 390 449 34,000  Level Fort Worth Center
Fri 09:37:39 PM 32.5564 -92.3042 263° West 390 449 34,000  Level Fort Worth Center
Fri 09:38:39 PM 32.5428 -92.4308 263° West 390 449 34,000  Level Fort Worth Center
Fri 09:39:39 PM 32.5269 -92.5622 262° West 376 433 34,000  Level Fort Worth Center
Fri 09:40:39 PM 32.5150 -92.6836 263° West 376 433 34,000  Level Fort Worth Center
Fri 09:41:39 PM 32.4986 -92.8075 261° West 376 433 34,000  Level Fort Worth Center
Fri 09:42:39 PM 32.4822 -92.9314 261° West 381 438 34,000  Level Fort Worth Center
Fri 09:43:39 PM 32.4681 -93.0603 263° West 386 444 34,000  Level Fort Worth Center
Fri 09:44:39 PM 32.4514 -93.1842 261° West 386 444 34,000  Level Fort Worth Center
Fri 09:45:39 PM 32.4367 -93.3078 262° West 391 450 34,000  Level Fort Worth Center
Fri 09:46:39 PM 32.4239 -93.4339 263° West 391 450 34,000  Level Fort Worth Center
Fri 09:47:39 PM 32.4153 -93.5547 265° West 391 450 34,000  Level Fort Worth Center
Fri 09:48:39 PM 32.4086 -93.6806 266° West 386 444 34,000  Level Fort Worth Center
Fri 09:49:39 PM 32.3975 -93.8039 264° West 386 444 34,000  Level Fort Worth Center
Fri 09:50:39 PM 32.3886 -93.9297 265° West 386 444 34,000  Level Fort Worth Center
Fri 09:51:39 PM 32.3794 -94.0508 265° West 386 444 34,000  Level Fort Worth Center
Fri 09:52:39 PM 32.3681 -94.1742 264° West 386 444 34,000  Level Fort Worth Center
Fri 09:53:39 PM 32.3586 -94.2950 265° West 386 444 34,000  Level Fort Worth Center
Fri 09:54:39 PM 32.3508 -94.4058 265° West 386 444 34,000  Level Fort Worth Center
Fri 09:55:39 PM 32.3389 -94.5267 263° West 381 438 34,000  Level Fort Worth Center
Fri 09:56:39 PM 32.3272 -94.6525 264° West 381 438 34,000  Level Fort Worth Center
Fri 09:57:39 PM 32.3150 -94.7683 263° West 376 433 34,000  Level Fort Worth Center
Fri 09:58:39 PM 32.3050 -94.8917 265° West 376 433 34,000  Level Fort Worth Center
Fri 09:59:39 PM 32.3014 -95.0292 268° West 383 441 34,000  Level Fort Worth Center
Fri 10:00:39 PM 32.2892 -95.1550 263° West 383 441 34,000  Level Fort Worth Center
Fri 10:01:39 PM 32.2767 -95.2781 263° West 388 447 34,000 -250 Level Fort Worth Center
Fri 10:02:39 PM 32.2683 -95.3986 265° West 388 447 33,500 -1,150 Descending Fort Worth Center
Fri 10:03:39 PM 32.2597 -95.5192 265° West 388 447 31,700 -2,550 Descending Fort Worth Center
Fri 10:04:39 PM 32.2719 -95.6419 277° West 378 435 28,400 -3,350 Descending Fort Worth Center
Fri 10:05:39 PM 32.2861 -95.7619 278° West 378 435 25,000 -3,100 Descending Fort Worth Center
Fri 10:06:39 PM 32.3022 -95.8747 280° West 373 429 22,200 -2,650 Descending Fort Worth Center
Fri 10:07:39 PM 32.3178 -95.9753 280° West 358 412 19,700 -2,850 Descending Fort Worth Center
Fri 10:08:39 PM 32.3339 -96.0956 279° West 348 400 16,500 -3,000 Descending Fort Worth Center
Fri 10:09:39 PM 32.3494 -96.1936 281° West 348 400 13,700 -2,700 Descending Fort Worth Center
Fri 10:10:39 PM 32.3653 -96.3164 279° West 343 395 11,100 -1,350 Descending Fort Worth Center
Fri 10:11:39 PM 32.3764 -96.4072 278° West 330 380 11,000 -200 Descending Fort Worth Center
Fri 10:12:39 PM 32.4250 -96.4756 310° West 265 305 10,700 -1,050 Descending Fort Worth Center
Fri 10:13:39 PM 32.4692 -96.5244 317° Northwest 247 284 8,900 -1,950 Descending Fort Worth Center
Fri 10:14:39 PM 32.5258 -96.5856 318° Northwest 248 285 6,800 -1,800 Descending Fort Worth Center
Fri 10:15:39 PM 32.5742 -96.6369 318° Northwest 248 285 5,300 -1,250 Descending Fort Worth Center
Fri 10:16:39 PM 32.6308 -96.6981 318° Northwest 248 285 4,300 -672 Descending Fort Worth Center
Fri 10:17:35 PM 32.6833 -96.7500 320° Northwest 256 295 4,000 -155 Descending Dallas / Fort Worth TRACON
Fri 10:18:35 PM 32.7333 -96.8000 320° Northwest 252 290 4,000 -350 Level Dallas / Fort Worth TRACON
Fri 10:19:35 PM 32.7833 -96.8667 312° West 256 295 3,300 -632 Descending Dallas / Fort Worth TRACON
Fri 10:20:29 PM 32.8167 -96.9167 308° West 199 229 2,800 -895 Descending Dallas / Fort Worth TRACON
Fri 10:21:29 PM 32.8500 -96.9500 320° Northwest 164 189 1,600 -1,200 Descending Dallas / Fort Worth TRACON

Login

Don't have an account? Register now (free) for customized features, flight alerts, and more!